Rhl Felicitas — A8SV2 — position and weather

sailwx.info

Track history (hours):
 
Tides and Currents Weather Stations Pressure Air Temp Water Temp Dewpoint Dewpoint Depression Visibility Wind Speed Wind Dir Waves Ship Positions

Rhl Felicitas

Last reported at 2014-Dec-02 19:33 UTC. Time now 2014-Dec-18 04:10 UTC.
Position N 01°13' E 103°41'.
Warning: this ship's position is 15 days out of date.

Length 294 m; draft 12.2 m.

Type: Ship (hazmat cat D). MMSI: 636091781.

Date/timePositionNaut miles runAvg speedWind from/ knotsBaromVisibWave heightAir tempDewpointWater temp
2014-Dec-02 19:33N 01°13' E 103°41'6 5.8
2014-Dec-02 18:26N 01°17' E 103°46'0 0.0
2014-Dec-02 17:29N 01°17' E 103°46'0 0.0
2014-Dec-02 16:29N 01°17' E 103°46'0 0.0
2014-Dec-02 15:29N 01°17' E 103°46'0 0.0
2014-Dec-02 14:29N 01°17' E 103°46'0 0.0
2014-Dec-02 13:32N 01°17' E 103°46'0 0.0
2014-Dec-02 12:32N 01°17' E 103°46'0 0.0
2014-Dec-02 11:32N 01°17' E 103°46'0 0.0
2014-Dec-02 10:29N 01°17' E 103°46'0 0.0
2014-Dec-02 09:26N 01°17' E 103°46'0 0.0
2014-Dec-02 08:32N 01°17' E 103°46'0 0.0
2014-Dec-02 07:29N 01°17' E 103°46'0 0.0
2014-Dec-02 06:32N 01°17' E 103°46'0 0.0
2014-Dec-02 05:29N 01°17' E 103°46'0 0.0
2014-Dec-02 04:32N 01°17' E 103°46'0 0.0
2014-Dec-02 03:32N 01°17' E 103°46'1 0.6
2014-Dec-02 02:33N 01°17' E 103°45'8 7.4
2014-Dec-02 01:26N 01°13' E 103°52'2 2.8
2014-Dec-02 00:33N 01°14' E 103°55'7 6.8
2014-Dec-01 23:33N 01°16' E 104°01'7 7.2
2014-Dec-01 22:33N 01°17' E 104°08'9 7.6
2014-Dec-01 21:24N 01°18' E 104°17'  
2014-Nov-26 00:33N 01°17' E 104°19'1716.8
2014-Nov-25 23:31N 01°15' E 104°02'1414.2
2014-Nov-25 22:33N 01°12' E 103°49'6 2.8
2014-Nov-25 20:30N 01°17' E 103°45'0 0.0
2014-Nov-25 17:18N 01°17' E 103°45'0 0.0
2014-Nov-25 16:27N 01°17' E 103°45'0 0.0
2014-Nov-25 12:15N 01°17' E 103°45'0 0.0
2014-Nov-25 09:32N 01°17' E 103°45'0 0.1
2014-Nov-25 07:26N 01°17' E 103°45'4 4.5
2014-Nov-25 06:33N 01°14' E 103°42'  
Track history (hours):
 
Tides and Currents Weather Stations Pressure Air Temp Water Temp Dewpoint Dewpoint Depression Visibility Wind Speed Wind Dir Waves Ship Positions

Rhl Felicitas

Last reported at 2014-Dec-02 19:33 UTC. Time now 2014-Dec-18 04:10 UTC.
Position N 01°13' E 103°41'.
Warning: this ship's position is 15 days out of date.

Length 294 m; draft 12.2 m.

Type: Ship (hazmat cat D). MMSI: 636091781.

Date/timePositionNaut miles runAvg speedWind from/ knotsBaromVisibWave heightAir tempDewpointWater temp
2014-Dec-02 19:33N 01°13' E 103°41'6 5.8
2014-Dec-02 18:26N 01°17' E 103°46'0 0.0
2014-Dec-02 17:29N 01°17' E 103°46'0 0.0
2014-Dec-02 16:29N 01°17' E 103°46'0 0.0
2014-Dec-02 15:29N 01°17' E 103°46'0 0.0
2014-Dec-02 14:29N 01°17' E 103°46'0 0.0
2014-Dec-02 13:32N 01°17' E 103°46'0 0.0
2014-Dec-02 12:32N 01°17' E 103°46'0 0.0
2014-Dec-02 11:32N 01°17' E 103°46'0 0.0
2014-Dec-02 10:29N 01°17' E 103°46'0 0.0
2014-Dec-02 09:26N 01°17' E 103°46'0 0.0
2014-Dec-02 08:32N 01°17' E 103°46'0 0.0
2014-Dec-02 07:29N 01°17' E 103°46'0 0.0
2014-Dec-02 06:32N 01°17' E 103°46'0 0.0
2014-Dec-02 05:29N 01°17' E 103°46'0 0.0
2014-Dec-02 04:32N 01°17' E 103°46'0 0.0
2014-Dec-02 03:32N 01°17' E 103°46'1 0.6
2014-Dec-02 02:33N 01°17' E 103°45'8 7.4
2014-Dec-02 01:26N 01°13' E 103°52'2 2.8
2014-Dec-02 00:33N 01°14' E 103°55'7 6.8
2014-Dec-01 23:33N 01°16' E 104°01'7 7.2
2014-Dec-01 22:33N 01°17' E 104°08'9 7.6
2014-Dec-01 21:24N 01°18' E 104°17'  
2014-Nov-26 00:33N 01°17' E 104°19'1716.8
2014-Nov-25 23:31N 01°15' E 104°02'1414.2
2014-Nov-25 22:33N 01°12' E 103°49'6 2.8
2014-Nov-25 20:30N 01°17' E 103°45'0 0.0
2014-Nov-25 17:18N 01°17' E 103°45'0 0.0
2014-Nov-25 16:27N 01°17' E 103°45'0 0.0
2014-Nov-25 12:15N 01°17' E 103°45'0 0.0
2014-Nov-25 09:32N 01°17' E 103°45'0 0.1
2014-Nov-25 07:26N 01°17' E 103°45'4 4.5
2014-Nov-25 06:33N 01°14' E 103°42'  

Dump ship's entire track history